Time;durP1;ratioP1;P1;durP2;ratioP2;P2;SDS_P1;SDS_P2;PMS_P1;PMS_P2;Temp;Humidity;BMP_temperature;BMP_pressure;BME280_temperature;BME280_humidity;BME280_pressure;Samples;Min_cycle;Max_cycle;Signal;HPM_P1;HPM_P2
2021/07/14 00:00:12;;;;;;;3.63;1.90;;;;;;;13.11;100.00;95745.88;5061218;28;20063;-77
2021/07/14 00:02:38;;;;;;;3.70;1.97;;;;;;;13.06;100.00;95735.06;5043297;28;20059;-78
2021/07/14 00:05:08;;;;;;;5.60;2.17;;;;;;;13.06;100.00;95737.69;5064305;28;20032;-77
2021/07/14 00:07:34;;;;;;;3.13;1.60;;;;;;;12.97;100.00;95727.25;5046484;28;20444;-81
2021/07/14 00:10:00;;;;;;;6.73;2.30;;;;;;;13.02;100.00;95725.88;5058135;28;20109;-77
2021/07/14 00:12:28;;;;;;;6.30;1.97;;;;;;;12.98;100.00;95715.69;5041539;28;20083;-78
2021/07/14 00:22:05;;;;;;;3.33;1.83;;;;;;;12.95;100.00;95712.63;5056943;28;20100;-78
2021/07/14 00:23:21;;;;;;;6.13;2.20;;;;;;;12.82;100.00;95708.00;5070256;28;20548;-78
2021/07/14 00:25:47;;;;;;;3.87;1.80;;;;;;;12.83;100.00;95704.34;5044656;28;20378;-78
2021/07/14 00:28:16;;;;;;;4.47;2.03;;;;;;;12.87;100.00;95708.25;5035040;28;20067;-77
2021/07/14 00:30:48;;;;;;;7.37;2.07;;;;;;;12.91;100.00;95711.34;5053416;28;20043;-77
2021/07/14 00:33:14;;;;;;;5.22;2.35;;;;;;;12.96;100.00;95719.53;5047576;28;20037;-78
2021/07/14 00:35:40;;;;;;;4.20;2.00;;;;;;;13.00;100.00;95717.31;5083702;28;20503;-78
2021/07/14 00:38:06;;;;;;;8.30;2.67;;;;;;;12.96;100.00;95715.06;5041503;28;20040;-78
2021/07/14 00:40:32;;;;;;;4.60;2.23;;;;;;;12.96;100.00;95717.69;5038878;28;20058;-78
2021/07/14 00:42:58;;;;;;;7.03;2.40;;;;;;;12.94;100.00;95717.09;5043813;28;20036;-78
2021/07/14 00:45:24;;;;;;;5.27;2.40;;;;;;;12.90;100.00;95715.78;5058008;28;20554;-78
2021/07/14 00:47:58;;;;;;;4.10;2.07;;;;;;;12.90;100.00;95713.16;5049639;28;20051;-77
2021/07/14 00:50:24;;;;;;;4.17;2.00;;;;;;;12.92;100.00;95708.53;5040434;28;20024;-78
2021/07/14 00:52:49;;;;;;;5.87;2.30;;;;;;;12.89;100.00;95711.53;5050341;28;20031;-78
2021/07/14 00:55:16;;;;;;;4.00;2.33;;;;;;;12.80;100.00;95715.28;5050381;28;20024;-78
2021/07/14 00:57:41;;;;;;;5.53;2.40;;;;;;;12.66;100.00;95729.31;5063867;28;20032;-77
2021/07/14 01:00:09;;;;;;;6.50;2.13;;;;;;;12.70;100.00;95733.22;5049218;28;20493;-78
2021/07/14 01:02:35;;;;;;;8.00;2.77;;;;;;;12.48;100.00;95738.44;5032697;28;20120;-78
2021/07/14 01:05:01;;;;;;;7.27;3.33;;;;;;;12.60;100.00;95753.78;5042660;28;20060;-78
2021/07/14 01:07:31;;;;;;;26.03;8.60;;;;;;;12.39;100.00;95770.38;5051973;28;20125;-78
2021/07/14 01:10:29;;;;;;;14.73;5.83;;;;;;;12.43;100.00;95776.91;5047489;28;20469;-78
2021/07/14 01:13:07;;;;;;;8.57;2.83;;;;;;;12.49;100.00;95774.34;5032664;28;20033;-77
2021/07/14 01:15:46;;;;;;;7.50;2.87;;;;;;;12.54;100.00;95763.28;5069343;28;20040;-77
2021/07/14 01:18:34;;;;;;;6.00;2.70;;;;;;;12.61;100.00;95751.00;5032930;28;20032;-78
2021/07/14 01:21:09;;;;;;;5.40;2.30;;;;;;;12.65;100.00;95751.44;5038801;28;20033;-78
2021/07/14 01:23:41;;;;;;;5.90;2.90;;;;;;;12.66;100.00;95766.25;5034024;28;20060;-77
2021/07/14 01:26:15;;;;;;;4.37;2.60;;;;;;;12.64;100.00;95771.72;5045098;28;20443;-78
2021/07/14 01:28:45;;;;;;;7.63;3.37;;;;;;;12.66;100.00;95776.81;5057857;28;20583;-78
2021/07/14 01:31:19;;;;;;;5.47;2.80;;;;;;;12.65;100.00;95778.63;5047549;28;20105;-78
2021/07/14 01:33:47;;;;;;;7.73;2.67;;;;;;;12.74;100.00;95789.88;5026564;28;20666;-78
2021/07/14 01:36:19;;;;;;;5.80;2.70;;;;;;;12.69;100.00;95781.72;5035394;28;20122;-77
2021/07/14 01:38:47;;;;;;;6.37;2.53;;;;;;;12.70;100.00;95778.88;5035550;28;20032;-78
2021/07/14 01:41:20;;;;;;;5.50;2.53;;;;;;;12.64;100.00;95794.63;5034848;28;20191;-77
2021/07/14 01:43:53;;;;;;;6.60;3.30;;;;;;;12.62;100.00;95794.00;5053707;28;20441;-78
2021/07/14 01:46:20;;;;;;;;;;;;;;;12.65;100.00;95791.81;5049984;28;20024;-78
2021/07/14 01:48:48;;;;;;;9.27;2.50;;;;;;;12.73;100.00;95788.25;5056632;28;19970;-77
2021/07/14 01:51:15;;;;;;;5.17;2.57;;;;;;;12.73;100.00;95789.06;5048172;28;20028;-78
2021/07/14 01:53:43;;;;;;;5.07;2.60;;;;;;;12.70;100.00;95791.25;5041037;28;20024;-78
2021/07/14 01:56:11;;;;;;;5.90;2.83;;;;;;;12.81;100.00;95798.75;5067597;28;20040;-78
2021/07/14 01:58:48;;;;;;;4.87;2.60;;;;;;;12.78;100.00;95793.81;5041342;28;20024;-77
2021/07/14 02:01:19;;;;;;;5.80;2.67;;;;;;;12.80;100.00;95786.53;5047540;28;20066;-78
2021/07/14 02:06:33;;;;;;;5.70;2.70;;;;;;;12.77;100.00;95768.41;5061286;28;20025;-78
2021/07/14 02:08:58;;;;;;;4.77;2.77;;;;;;;12.63;100.00;95771.91;5056733;28;20028;-78
2021/07/14 02:11:27;;;;;;;9.00;3.30;;;;;;;12.65;100.00;95765.44;5065434;28;20035;-78
2021/07/14 02:13:55;;;;;;;4.63;2.93;;;;;;;12.63;100.00;95766.63;5053033;28;20020;-78
2021/07/14 02:16:23;;;;;;;6.27;2.77;;;;;;;12.63;100.00;95766.63;5038196;28;20087;-78
2021/07/14 02:18:57;;;;;;;6.20;2.90;;;;;;;12.57;100.00;95770.00;5056717;28;20025;-78
2021/07/14 02:21:24;;;;;;;5.43;3.00;;;;;;;12.62;100.00;95770.28;5039495;28;20531;-78
2021/07/14 02:23:49;;;;;;;6.90;3.10;;;;;;;12.65;100.00;95780.47;5042875;28;20021;-78
2021/07/14 02:26:15;;;;;;;6.13;2.70;;;;;;;12.65;100.00;95785.72;5040724;28;20044;-78
2021/07/14 02:28:41;;;;;;;7.17;3.27;;;;;;;12.67;100.00;95773.16;5079485;28;20111;-78
2021/07/14 02:31:07;;;;;;;3.93;2.60;;;;;;;12.72;100.00;95773.44;5060655;28;20035;-78
2021/07/14 02:33:32;;;;;;;8.30;3.47;;;;;;;12.68;100.00;95782.72;5051295;28;20052;-77
2021/07/14 02:36:02;;;;;;;6.13;2.80;;;;;;;12.66;100.00;95782.09;5037228;28;20073;-78
2021/07/14 02:38:41;;;;;;;5.33;2.97;;;;;;;12.73;100.00;95777.72;5033348;28;20119;-78
2021/07/14 02:41:13;;;;;;;7.23;3.70;;;;;;;12.70;100.00;95764.88;5034356;28;20033;-78
2021/07/14 02:43:44;;;;;;;8.13;3.37;;;;;;;12.63;100.00;95759.53;5048918;28;20028;-78
2021/07/14 02:46:13;;;;;;;7.23;3.03;;;;;;;12.63;100.00;95759.53;5057578;28;20034;-78
2021/07/14 02:48:41;;;;;;;4.97;3.37;;;;;;;12.62;100.00;95757.91;5060140;28;20028;-78
2021/07/14 02:51:08;;;;;;;5.30;3.33;;;;;;;12.67;100.00;95752.88;5068662;28;20036;-77
2021/07/14 02:53:39;;;;;;;7.27;3.00;;;;;;;12.66;100.00;95750.44;5060701;28;20423;-78
2021/07/14 02:56:14;;;;;;;6.70;3.60;;;;;;;12.59;100.00;95752.16;5047370;28;20042;-78
2021/07/14 02:58:48;;;;;;;9.40;4.03;;;;;;;12.56;100.00;95747.25;5080738;28;20043;-78
2021/07/14 03:01:15;;;;;;;6.17;3.47;;;;;;;12.48;100.00;95759.53;5048430;28;20044;-78
2021/07/14 03:03:43;;;;;;;7.90;3.50;;;;;;;12.43;100.00;95756.63;5058839;28;20472;-77
2021/07/14 03:06:10;;;;;;;7.53;4.10;;;;;;;12.37;100.00;95759.16;5065964;28;20222;-79
2021/07/14 03:08:36;;;;;;;5.73;3.50;;;;;;;12.38;100.00;95763.47;5037647;28;20033;-77
2021/07/14 03:11:05;;;;;;;10.63;4.07;;;;;;;12.37;100.00;95759.97;5040762;28;20482;-78
2021/07/14 03:13:34;;;;;;;8.13;4.03;;;;;;;12.38;100.00;95761.63;5051772;28;20024;-77
2021/07/14 03:16:02;;;;;;;9.00;4.17;;;;;;;12.40;100.00;95764.91;5037236;28;20120;-77
2021/07/14 03:18:29;;;;;;;5.93;3.40;;;;;;;12.41;100.00;95766.56;5056147;28;20720;-78
2021/07/14 03:20:58;;;;;;;6.87;3.53;;;;;;;12.37;100.00;95762.63;5067417;28;20025;-77
2021/07/14 03:23:24;;;;;;;7.97;4.00;;;;;;;12.29;100.00;95769.81;5058830;28;20067;-78
2021/07/14 03:25:52;;;;;;;6.63;4.07;;;;;;;12.24;100.00;95770.38;5047173;28;20097;-78
2021/07/14 03:28:22;;;;;;;5.57;3.80;;;;;;;12.22;100.00;95770.53;5041147;28;20028;-78
2021/07/14 03:30:52;;;;;;;16.50;4.27;;;;;;;12.28;100.00;95771.63;5055247;28;20035;-78
2021/07/14 03:33:18;;;;;;;6.30;4.30;;;;;;;12.25;100.00;95777.28;5054473;28;20473;-78
2021/07/14 03:35:44;;;;;;;8.80;4.40;;;;;;;12.24;100.00;95778.28;5044133;28;20087;-78
2021/07/14 03:38:11;;;;;;;6.40;3.93;;;;;;;12.26;100.00;95777.06;5042956;28;20020;-78
2021/07/14 03:40:42;;;;;;;6.10;4.23;;;;;;;12.27;100.00;95778.72;5040276;28;20028;-77
2021/07/14 03:43:09;;;;;;;8.87;4.20;;;;;;;12.27;100.00;95777.88;5077036;28;20024;-78
2021/07/14 03:45:38;;;;;;;8.10;3.80;;;;;;;12.32;100.00;95770.28;5039917;28;20254;-78
2021/07/14 03:48:04;;;;;;;6.97;3.73;;;;;;;12.38;100.00;95761.63;5066263;28;20487;-78
2021/07/14 03:50:31;;;;;;;6.63;4.10;;;;;;;12.45;100.00;95761.72;5046503;28;20028;-78
2021/07/14 03:52:57;;;;;;;6.90;4.60;;;;;;;12.45;100.00;95761.72;5058481;28;20119;-78
2021/07/14 03:55:23;;;;;;;8.43;4.77;;;;;;;12.38;100.00;95766.91;5032590;28;20624;-78
2021/07/14 03:57:49;;;;;;;11.97;4.60;;;;;;;12.44;100.00;95768.81;5050365;28;20031;-78
2021/07/14 04:00:15;;;;;;;8.97;4.53;;;;;;;12.46;100.00;95761.53;5059393;28;20397;-76
2021/07/14 04:02:44;;;;;;;7.73;4.97;;;;;;;12.45;100.00;95759.91;5055879;28;20043;-78
2021/07/14 04:05:12;;;;;;;9.63;4.67;;;;;;;12.49;100.00;95758.53;5056195;28;20033;-77
2021/07/14 04:07:40;;;;;;;10.00;5.00;;;;;;;12.56;100.00;95760.44;5061664;28;20401;-77
2021/07/14 04:10:07;;;;;;;7.33;4.73;;;;;;;12.59;100.00;95760.09;5041692;28;20136;-78
2021/07/14 04:12:33;;;;;;;6.17;3.97;;;;;;;12.55;100.00;95754.34;5063468;28;20020;-77
2021/07/14 04:15:00;;;;;;;7.90;4.43;;;;;;;12.48;100.00;95748.19;5058267;28;20489;-77
2021/07/14 04:17:26;;;;;;;7.77;5.10;;;;;;;12.49;100.00;95750.63;5029585;28;20035;-77
2021/07/14 04:19:53;;;;;;;6.40;3.87;;;;;;;12.57;100.00;95754.97;5050311;28;20032;-77
2021/07/14 04:22:19;;;;;;;8.77;4.47;;;;;;;12.62;100.00;95749.16;5040383;28;20060;-77
2021/07/14 04:24:44;;;;;;;7.13;3.83;;;;;;;12.66;100.00;95759.16;5046690;28;20032;-78
2021/07/14 04:27:11;;;;;;;11.60;4.03;;;;;;;12.68;100.00;95759.00;5037593;28;20036;-76
2021/07/14 04:29:36;;;;;;;7.30;3.60;;;;;;;12.73;100.00;95751.31;5043414;28;20028;-77
2021/07/14 04:32:03;;;;;;;7.17;3.77;;;;;;;12.70;100.00;95751.69;5042567;28;20033;-77
2021/07/14 04:34:29;;;;;;;5.43;3.57;;;;;;;12.72;100.00;95749.69;5019367;28;20024;-77
2021/07/14 04:36:55;;;;;;;6.60;3.87;;;;;;;12.72;100.00;95758.44;5046090;28;20668;-78
2021/07/14 04:39:20;;;;;;;6.87;3.50;;;;;;;12.80;100.00;95757.50;5058826;28;20046;-78
2021/07/14 04:41:46;;;;;;;5.50;3.50;;;;;;;12.78;100.00;95764.00;5076327;28;20043;-78
2021/07/14 04:44:17;;;;;;;12.37;7.17;;;;;;;12.77;100.00;95768.41;5053510;28;20048;-78
2021/07/14 04:46:43;;;;;;;8.50;4.17;;;;;;;12.83;100.00;95770.31;5076108;28;20432;-77
2021/07/14 04:49:09;;;;;;;8.50;4.60;;;;;;;12.76;100.00;95766.78;5030843;28;20024;-77
2021/07/14 04:51:35;;;;;;;8.67;4.37;;;;;;;12.80;100.00;95762.78;5033955;28;20032;-77
2021/07/14 04:54:01;;;;;;;6.97;3.63;;;;;;;12.89;100.00;95766.94;5060883;28;20021;-79
2021/07/14 04:56:26;;;;;;;6.83;4.03;;;;;;;12.89;100.00;95774.06;5060241;28;20492;-78
2021/07/14 04:58:52;;;;;;;8.43;3.67;;;;;;;12.87;100.00;95779.50;5062981;28;20044;-80
2021/07/14 05:01:18;;;;;;;6.53;3.50;;;;;;;12.91;100.00;95780.78;5031773;28;20096;-78
2021/07/14 05:03:45;;;;;;;7.50;3.93;;;;;;;13.03;100.00;95775.03;5072440;28;20043;-77
2021/07/14 05:06:15;;;;;;;7.80;3.80;;;;;;;12.97;100.00;95777.38;5040687;28;20032;-77
2021/07/14 05:08:42;;;;;;;7.33;3.97;;;;;;;12.98;100.00;95776.41;5075266;28;20396;-77
2021/07/14 05:11:15;;;;;;;7.17;3.60;;;;;;;13.10;100.00;95778.56;5064483;28;20042;-77
2021/07/14 05:13:41;;;;;;;7.35;3.45;;;;;;;13.11;100.00;95778.38;5035168;28;20079;-77
2021/07/14 05:16:08;;;;;;;7.87;4.17;;;;;;;13.12;100.00;95774.72;5057129;28;20032;-77
2021/07/14 05:18:35;;;;;;;6.53;3.60;;;;;;;12.98;100.00;95772.97;5038045;28;20099;-78
2021/07/14 05:21:01;;;;;;;5.87;3.70;;;;;;;13.08;100.00;95776.13;5041376;28;20565;-77
2021/07/14 05:23:27;;;;;;;6.47;3.90;;;;;;;13.01;100.00;95782.31;5059274;28;20066;-77
2021/07/14 05:25:53;;;;;;;9.97;3.67;;;;;;;13.04;100.00;95779.28;5039412;28;20166;-78
2021/07/14 05:28:18;;;;;;;8.87;4.00;;;;;;;13.00;100.00;95778.03;5039025;28;20045;-77
2021/07/14 05:30:45;;;;;;;7.80;4.10;;;;;;;13.10;100.00;95770.63;5033643;28;20148;-78
2021/07/14 05:33:12;;;;;;;5.97;3.67;;;;;;;13.10;100.00;95768.00;5047252;28;20156;-77
2021/07/14 05:35:38;;;;;;;7.33;3.73;;;;;;;13.21;100.00;95765.69;5042731;28;20420;-80
2021/07/14 05:38:19;;;;;;;7.23;3.30;;;;;;;13.36;100.00;95762.22;5037536;28;20105;-78
2021/07/14 05:40:51;;;;;;;6.57;4.27;;;;;;;13.31;100.00;95754.88;5058795;28;20048;-78
2021/07/14 05:43:17;;;;;;;6.37;4.07;;;;;;;13.35;100.00;95750.84;5043812;28;20024;-78
2021/07/14 05:45:44;;;;;;;5.60;3.50;;;;;;;13.35;100.00;95755.31;5070163;28;20085;-77
2021/07/14 05:48:10;;;;;;;7.50;3.30;;;;;;;13.40;100.00;95751.06;5037291;28;20035;-79
2021/07/14 05:50:36;;;;;;;8.93;4.17;;;;;;;13.45;100.00;95755.81;5038769;28;20032;-77
2021/07/14 05:53:03;;;;;;;6.73;3.30;;;;;;;13.36;100.00;95757.75;5055511;28;20025;-79
2021/07/14 05:55:29;;;;;;;8.02;3.35;;;;;;;13.38;100.00;95757.53;5040319;28;20035;-78
2021/07/14 05:57:55;;;;;;;6.23;3.40;;;;;;;13.41;100.00;95750.09;5072169;28;20028;-79
2021/07/14 06:00:21;;;;;;;5.17;3.17;;;;;;;13.32;100.00;95745.94;5054434;28;20040;-80
2021/07/14 06:02:46;;;;;;;6.18;3.70;;;;;;;13.36;100.00;95747.19;5049899;28;20021;-78
2021/07/14 06:05:13;;;;;;;5.23;3.43;;;;;;;13.37;100.00;95746.16;5036238;28;20052;-79
2021/07/14 06:07:39;;;;;;;6.60;3.20;;;;;;;13.46;100.00;95738.13;5079974;28;20024;-79
2021/07/14 06:10:08;;;;;;;6.25;4.10;;;;;;;13.44;100.00;95736.47;5041583;28;20085;-78
2021/07/14 06:12:34;;;;;;;6.13;3.70;;;;;;;13.37;100.00;95743.53;5042057;28;20046;-77
2021/07/14 06:15:00;;;;;;;10.95;3.97;;;;;;;13.41;100.00;95743.97;5043636;28;20123;-78
2021/07/14 06:17:27;;;;;;;7.53;4.05;;;;;;;13.46;100.00;95743.41;5061621;28;20032;-79
2021/07/14 06:19:52;;;;;;;8.18;4.05;;;;;;;13.46;100.00;95740.78;5038679;28;20032;-78
2021/07/14 06:22:18;;;;;;;6.20;3.60;;;;;;;13.43;100.00;95748.06;5064054;28;20111;-78
2021/07/14 06:24:44;;;;;;;8.27;4.10;;;;;;;13.42;100.00;95751.72;5064769;28;20132;-77
2021/07/14 06:27:11;;;;;;;6.57;3.78;;;;;;;13.43;100.00;95747.25;5063697;28;20032;-79
2021/07/14 06:29:37;;;;;;;6.47;3.50;;;;;;;13.36;100.00;95741.91;5044594;28;20023;-79
2021/07/14 06:32:04;;;;;;;6.40;3.72;;;;;;;13.43;100.00;95744.59;5064163;28;20138;-77
2021/07/14 06:34:29;;;;;;;7.13;3.30;;;;;;;13.44;100.00;95757.59;5038990;28;20032;-78
2021/07/14 06:36:55;;;;;;;5.60;3.40;;;;;;;13.58;100.00;95750.66;5040504;28;20025;-80
2021/07/14 06:39:21;;;;;;;8.48;3.78;;;;;;;13.59;100.00;95746.19;5064299;28;20029;-79
2021/07/14 06:41:48;;;;;;;5.60;3.60;;;;;;;13.66;100.00;95747.06;5073558;28;20012;-78
2021/07/14 06:44:14;;;;;;;6.20;3.53;;;;;;;13.65;100.00;95742.78;5052988;28;20051;-78
2021/07/14 06:46:40;;;;;;;8.50;3.58;;;;;;;13.75;100.00;95745.91;5051199;28;20051;-78
2021/07/14 06:49:06;;;;;;;6.95;3.95;;;;;;;13.82;100.00;95752.06;5048477;28;20524;-79
2021/07/14 06:51:31;;;;;;;8.25;3.55;;;;;;;14.22;100.00;95755.00;5079283;28;20027;-78
2021/07/14 06:53:57;;;;;;;6.72;3.88;;;;;;;14.01;100.00;95757.69;5041901;28;20402;-79
2021/07/14 06:56:23;;;;;;;6.47;3.75;;;;;;;13.99;100.00;95760.53;5043473;28;20543;-77
2021/07/14 06:58:49;;;;;;;8.93;4.07;;;;;;;13.90;100.00;95770.41;5048937;28;20043;-77
2021/07/14 07:01:15;;;;;;;7.03;3.38;;;;;;;13.99;100.00;95765.81;5050861;28;20562;-78
2021/07/14 07:03:42;;;;;;;7.20;3.90;;;;;;;13.98;100.00;95763.34;5042264;28;20171;-80
2021/07/14 07:06:08;;;;;;;7.55;3.90;;;;;;;14.01;100.00;95768.25;5058193;28;20028;-79
2021/07/14 07:08:34;;;;;;;7.30;3.60;;;;;;;13.97;100.00;95769.66;5052107;28;20031;-79
2021/07/14 07:11:00;;;;;;;9.15;4.18;;;;;;;13.98;100.00;95766.00;5066408;28;20050;-79
2021/07/14 07:13:27;;;;;;;7.50;3.85;;;;;;;14.10;100.00;95767.13;5057775;28;20028;-78
2021/07/14 07:15:53;;;;;;;6.38;3.75;;;;;;;14.10;100.00;95756.53;5038778;28;20036;-78
2021/07/14 07:18:21;;;;;;;5.80;3.58;;;;;;;14.18;100.00;95753.75;5049905;28;20028;-78
2021/07/14 07:20:48;;;;;;;7.32;3.85;;;;;;;14.08;100.00;95756.75;5055873;28;20111;-78
2021/07/14 07:23:14;;;;;;;5.75;3.38;;;;;;;14.02;100.00;95770.72;5046611;28;20638;-79
2021/07/14 07:25:41;;;;;;;7.00;3.58;;;;;;;13.98;100.00;95771.28;5063049;28;20066;-80
2021/07/14 07:28:19;;;;;;;6.85;3.65;;;;;;;14.01;100.00;95781.47;5046234;28;20036;-78
2021/07/14 07:30:44;;;;;;;5.70;4.15;;;;;;;13.90;100.00;95781.00;5033681;28;20071;-78
2021/07/14 07:33:10;;;;;;;6.65;4.10;;;;;;;13.73;100.00;95789.38;5059127;28;20060;-78
2021/07/14 07:35:36;;;;;;;7.15;3.80;;;;;;;13.70;100.00;95790.59;5039395;28;20037;-78
2021/07/14 07:38:02;;;;;;;7.22;4.05;;;;;;;13.63;100.00;95793.16;5036298;28;20032;-78
2021/07/14 07:40:28;;;;;;;6.07;3.80;;;;;;;13.62;100.00;95802.09;5065604;28;20032;-78
2021/07/14 07:42:54;;;;;;;7.82;4.35;;;;;;;13.66;100.00;95805.19;5064528;28;20112;-78
2021/07/14 07:45:20;;;;;;;7.20;4.28;;;;;;;13.76;100.00;95812.81;5041992;28;20445;-78
2021/07/14 07:47:46;;;;;;;6.57;4.40;;;;;;;13.87;100.00;95805.16;5035479;28;20103;-78
2021/07/14 07:50:12;;;;;;;6.85;4.63;;;;;;;13.86;100.00;95800.91;5063854;28;20033;-78
2021/07/14 07:52:38;;;;;;;11.10;4.50;;;;;;;14.00;100.00;95801.81;5037897;28;20027;-79
2021/07/14 07:55:07;;;;;;;9.73;4.10;;;;;;;14.08;100.00;95804.34;5055640;28;20119;-82
2021/07/14 07:57:33;;;;;;;6.43;4.15;;;;;;;14.24;100.00;95807.69;5048912;28;20024;-78
2021/07/14 07:59:58;;;;;;;6.38;3.92;;;;;;;14.34;100.00;95809.00;5048877;28;20036;-79
2021/07/14 08:02:24;;;;;;;5.88;3.53;;;;;;;14.21;100.00;95811.53;5039378;28;20032;-79
2021/07/14 08:04:50;;;;;;;7.88;3.63;;;;;;;14.42;100.00;95820.44;5052408;28;20059;-78
2021/07/14 08:07:16;;;;;;;8.20;5.28;;;;;;;14.42;100.00;95823.06;5065306;28;20150;-77
2021/07/14 08:09:41;;;;;;;7.80;4.38;;;;;;;14.54;100.00;95822.38;5077927;28;20063;-81
2021/07/14 08:12:07;;;;;;;8.50;5.05;;;;;;;14.84;100.00;95828.25;5046529;28;20111;-79
2021/07/14 08:14:33;;;;;;;6.43;4.18;;;;;;;15.03;100.00;95821.44;5044576;28;20039;-78
2021/07/14 08:16:59;;;;;;;9.23;3.67;;;;;;;15.05;100.00;95827.34;5071397;28;20028;-78
2021/07/14 08:19:25;;;;;;;8.95;3.83;;;;;;;15.12;99.20;95831.84;5062432;28;20024;-78
2021/07/14 08:21:51;;;;;;;6.75;3.47;;;;;;;15.56;99.06;95826.94;5045606;28;20634;-80
2021/07/14 08:24:17;;;;;;;7.78;3.35;;;;;;;16.05;96.45;95818.84;5065357;28;20105;-78
2021/07/14 08:26:43;;;;;;;6.78;3.75;;;;;;;16.36;95.16;95816.38;5043746;28;20024;-79
2021/07/14 08:29:09;;;;;;;6.53;3.45;;;;;;;16.48;91.90;95817.41;5054705;28;20439;-78
2021/07/14 08:31:35;;;;;;;8.15;3.58;;;;;;;16.38;94.57;95827.63;5049788;28;20074;-76
2021/07/14 08:34:00;;;;;;;7.93;3.45;;;;;;;16.67;94.89;95826.38;5032499;28;20060;-78
2021/07/14 08:36:27;;;;;;;6.00;2.95;;;;;;;16.60;93.00;95836.19;5042121;28;20067;-78
2021/07/14 08:38:53;;;;;;;6.55;3.60;;;;;;;16.33;94.63;95840.72;5029948;28;20252;-77
2021/07/14 08:41:21;;;;;;;5.53;2.95;;;;;;;16.33;93.16;95842.53;5037855;28;20087;-77
2021/07/14 08:43:47;;;;;;;5.13;3.40;;;;;;;16.21;95.05;95842.34;5066902;28;20023;-76
2021/07/14 08:46:13;;;;;;;6.07;3.38;;;;;;;16.25;92.87;95839.06;5072329;28;20020;-77
2021/07/14 08:48:40;;;;;;;4.85;3.17;;;;;;;16.38;92.25;95838.25;5069134;28;20024;-77
2021/07/14 08:51:06;;;;;;;6.40;3.33;;;;;;;16.40;92.31;95838.06;5052942;28;20073;-78
2021/07/14 08:53:33;;;;;;;4.28;2.83;;;;;;;16.39;92.96;95841.72;5037753;28;20029;-77
2021/07/14 08:56:00;;;;;;;6.57;2.88;;;;;;;15.96;92.17;95850.91;5056033;28;20032;-77
2021/07/14 08:58:27;;;;;;;6.90;3.13;;;;;;;16.04;93.20;95844.56;5062878;28;20503;-77
2021/07/14 09:00:56;;;;;;;5.57;3.20;;;;;;;15.97;92.21;95852.53;5036429;28;20028;-78
2021/07/14 09:03:23;;;;;;;5.28;2.78;;;;;;;16.13;92.50;95850.47;5045336;28;20029;-77
2021/07/14 09:05:49;;;;;;;5.40;3.15;;;;;;;16.01;93.21;95847.63;5030183;28;20078;-77
2021/07/14 09:08:15;;;;;;;4.88;3.10;;;;;;;15.86;92.00;95844.31;5042997;28;20037;-77
2021/07/14 09:10:45;;;;;;;7.10;3.30;;;;;;;15.88;93.16;95842.31;5056094;28;20028;-77
2021/07/14 09:13:12;;;;;;;6.38;2.90;;;;;;;15.81;92.78;95838.81;5059904;28;20054;-78
2021/07/14 09:15:47;;;;;;;7.35;4.22;;;;;;;15.96;93.94;95832.34;5060965;28;20024;-77
2021/07/14 09:18:15;;;;;;;7.45;3.45;;;;;;;15.98;93.57;95843.53;5046846;28;20401;-77
2021/07/14 09:20:42;;;;;;;7.72;3.40;;;;;;;15.89;92.81;95828.03;5058771;28;20020;-78
2021/07/14 09:23:21;;;;;;;5.45;3.30;;;;;;;15.90;91.71;95834.97;5048583;28;20037;-77
2021/07/14 09:25:53;;;;;;;6.20;3.17;;;;;;;15.82;92.58;95838.63;5082563;28;20033;-78
2021/07/14 09:28:22;;;;;;;6.03;3.35;;;;;;;15.99;91.08;95833.75;5055866;28;20028;-78
2021/07/14 09:30:57;;;;;;;6.30;2.83;;;;;;;16.09;91.87;95833.34;5061755;28;20033;-77
2021/07/14 09:33:23;;;;;;;4.38;2.95;;;;;;;16.06;90.77;95833.75;5061102;28;20029;-78
2021/07/14 09:35:52;;;;;;;5.55;2.92;;;;;;;16.16;90.95;95844.78;5041257;28;20520;-77
2021/07/14 09:38:28;;;;;;;5.45;3.10;;;;;;;16.12;90.04;95854.16;5041171;28;20035;-78
2021/07/14 09:40:57;;;;;;;5.47;3.25;;;;;;;15.77;91.37;95857.78;5058483;28;20248;-77
2021/07/14 09:43:30;;;;;;;7.47;4.10;;;;;;;15.86;90.46;95853.13;5041150;28;20033;-78
2021/07/14 09:46:00;;;;;;;4.95;3.40;;;;;;;16.04;90.63;95852.53;5044744;28;20135;-78
2021/07/14 09:48:31;;;;;;;5.13;2.97;;;;;;;15.95;90.02;95853.72;5064559;28;20040;-78
2021/07/14 09:50:59;;;;;;;6.95;3.42;;;;;;;16.12;91.18;95854.97;5063231;28;20047;-77
2021/07/14 09:53:28;;;;;;;6.13;3.38;;;;;;;16.23;90.79;95851.72;5037845;28;20025;-78
2021/07/14 09:55:58;;;;;;;6.90;3.33;;;;;;;16.58;88.32;95859.47;5063420;28;20032;-79
2021/07/14 09:58:31;;;;;;;5.82;2.90;;;;;;;16.16;88.57;95860.69;5061314;28;20401;-79
2021/07/14 10:01:02;;;;;;;5.85;2.70;;;;;;;16.12;87.24;95862.94;5043846;28;20060;-78
2021/07/14 10:03:33;;;;;;;5.93;2.92;;;;;;;16.09;87.66;95865.16;5046706;28;20112;-78
2021/07/14 10:06:07;;;;;;;5.95;2.88;;;;;;;16.07;87.22;95860.09;5049099;28;20032;-78
2021/07/14 10:08:33;;;;;;;;;;;;;;;15.86;87.14;95870.84;5060233;28;20047;-78
2021/07/14 10:11:12;;;;;;;4.55;3.13;;;;;;;16.07;88.17;95867.22;5043905;28;19975;-78
2021/07/14 10:14:11;;;;;;;5.40;3.25;;;;;;;16.09;88.99;95870.47;5037869;28;20124;-79
2021/07/14 10:16:40;;;;;;;5.55;3.17;;;;;;;16.46;88.79;95867.25;5011267;28;20048;-78
2021/07/14 10:19:11;;;;;;;5.82;3.38;;;;;;;16.63;87.68;95864.16;5053359;28;20040;-78
2021/07/14 10:21:42;;;;;;;5.18;2.83;;;;;;;16.98;86.21;95853.31;5052333;28;20549;-78
2021/07/14 10:24:10;;;;;;;7.15;3.55;;;;;;;17.14;85.09;95853.66;5038765;28;20037;-78
2021/07/14 10:26:38;;;;;;;4.90;3.20;;;;;;;17.04;84.41;95852.47;5055106;28;20056;-79
2021/07/14 10:29:05;;;;;;;7.90;3.90;;;;;;;17.15;84.69;95857.13;5044367;28;20518;-78
2021/07/14 10:31:32;;;;;;;4.78;2.97;;;;;;;17.41;84.63;95859.69;5040391;28;20016;-80
2021/07/14 10:34:00;;;;;;;4.63;3.00;;;;;;;17.44;83.97;95869.09;5079985;28;20028;-79
2021/07/14 10:36:29;;;;;;;6.10;3.67;;;;;;;17.09;84.30;95868.59;5046808;28;20032;-79
2021/07/14 10:39:08;;;;;;;6.00;2.95;;;;;;;17.18;82.74;95868.16;5051631;28;20036;-78
2021/07/14 10:41:34;;;;;;;4.65;2.97;;;;;;;17.23;82.35;95875.50;5060271;28;20043;-79
2021/07/14 10:44:01;;;;;;;8.88;2.92;;;;;;;17.31;83.51;95875.28;5045385;28;20020;-80
2021/07/14 10:46:30;;;;;;;5.22;2.65;;;;;;;17.46;82.73;95877.66;5057699;28;20025;-79
2021/07/14 10:48:59;;;;;;;4.68;2.83;;;;;;;17.13;83.89;95883.91;5042694;28;20099;-78
2021/07/14 10:51:27;;;;;;;4.57;2.75;;;;;;;17.55;82.29;95880.91;5047471;28;20092;-78
2021/07/14 10:53:58;;;;;;;5.10;3.20;;;;;;;17.71;82.18;95882.28;5044775;28;20017;-78
2021/07/14 10:56:27;;;;;;;7.32;3.35;;;;;;;17.78;80.17;95886.56;5043999;28;20406;-78
2021/07/14 10:58:53;;;;;;;6.65;2.42;;;;;;;17.80;80.32;95883.66;5041180;28;20020;-82
2021/07/14 11:01:44;;;;;;;3.50;2.30;;;;;;;17.56;79.29;95887.84;5059378;28;20032;-79
2021/07/14 11:04:13;;;;;;;6.15;2.70;;;;;;;17.58;80.67;95888.47;5052064;28;20131;-77
2021/07/14 11:07:06;;;;;;;5.60;2.78;;;;;;;17.51;81.11;95883.19;5050801;28;20039;-79
2021/07/14 11:09:43;;;;;;;4.40;2.28;;;;;;;17.95;79.52;95881.53;5053631;28;20040;-79
2021/07/14 11:12:28;;;;;;;7.28;2.70;;;;;;;17.82;78.92;95879.78;5076775;28;21259;-79
2021/07/14 11:14:59;;;;;;;5.10;2.30;;;;;;;18.21;79.18;95880.56;5036351;28;20036;-79
2021/07/14 11:17:30;;;;;;;7.68;2.28;;;;;;;17.98;78.70;95869.66;5041682;28;20036;-78
2021/07/14 11:20:14;;;;;;;4.70;2.55;;;;;;;18.37;77.09;95873.88;5055004;28;20235;-79
2021/07/14 11:22:49;;;;;;;5.95;2.38;;;;;;;18.71;75.35;95864.59;5063935;28;20028;-78
2021/07/14 11:25:25;;;;;;;5.43;2.30;;;;;;;18.71;74.51;95869.94;5061190;28;20036;-78
2021/07/14 11:28:00;;;;;;;4.75;2.40;;;;;;;18.69;73.68;95863.19;5057302;28;20051;-78
2021/07/14 11:30:35;;;;;;;5.28;2.80;;;;;;;18.79;75.57;95860.84;5065704;28;20400;-79
2021/07/14 11:33:01;;;;;;;5.78;2.50;;;;;;;19.24;73.53;95857.91;5035150;28;20391;-78
2021/07/14 11:36:01;;;;;;;8.00;4.50;;;;;;;19.44;73.37;95861.16;5063153;28;20076;-78
2021/07/14 11:38:32;;;;;;;5.13;2.72;;;;;;;19.40;72.66;95857.31;5056706;28;20493;-79
2021/07/14 11:41:01;;;;;;;4.90;2.75;;;;;;;19.29;73.40;95860.75;5066430;28;20079;-79